createdAt,value
2022-12-04T00:00:39.560Z,13.10
2022-12-04T00:03:07.015Z,12.63
2022-12-04T00:05:34.311Z,11.60
2022-12-04T00:08:01.655Z,11.57
2022-12-04T00:10:29.136Z,12.40
2022-12-04T00:12:56.435Z,12.33
2022-12-04T00:15:25.715Z,10.87
2022-12-04T00:17:53.989Z,11.77
2022-12-04T00:20:22.971Z,10.90
2022-12-04T00:22:50.290Z,11.07
2022-12-04T00:25:17.680Z,11.53
2022-12-04T00:27:44.896Z,11.77
2022-12-04T00:30:12.508Z,12.23
2022-12-04T00:32:39.741Z,11.33
2022-12-04T00:35:07.362Z,11.30
2022-12-04T00:37:34.554Z,11.13
2022-12-04T00:40:01.903Z,11.93
2022-12-04T00:42:29.086Z,11.60
2022-12-04T00:44:56.366Z,11.60
2022-12-04T00:47:23.663Z,10.07
2022-12-04T00:49:51.050Z,10.30
2022-12-04T00:52:18.509Z,11.50
2022-12-04T00:54:45.792Z,11.17
2022-12-04T00:57:13.004Z,10.80
2022-12-04T00:59:40.256Z,13.20
2022-12-04T01:02:07.540Z,11.73
2022-12-04T01:04:34.798Z,10.90
2022-12-04T01:07:05.143Z,11.47
2022-12-04T01:09:33.206Z,11.73
2022-12-04T01:12:00.431Z,10.60
2022-12-04T01:14:27.660Z,10.83
2022-12-04T01:16:54.972Z,10.20
2022-12-04T01:19:22.556Z,10.83
2022-12-04T01:21:49.821Z,10.97
2022-12-04T01:24:17.043Z,10.80
2022-12-04T01:26:44.312Z,10.70
2022-12-04T01:29:11.528Z,10.83
2022-12-04T01:31:38.877Z,10.00
2022-12-04T01:34:06.230Z,11.47
2022-12-04T01:36:33.543Z,10.93
2022-12-04T01:39:00.975Z,11.17
2022-12-04T01:41:29.725Z,11.03
2022-12-04T01:44:15.632Z,10.87
2022-12-04T01:46:51.385Z,10.77
2022-12-04T01:49:24.856Z,11.00
2022-12-04T01:52:07.010Z,10.50
2022-12-04T01:54:41.676Z,12.23
2022-12-04T01:57:21.136Z,11.37
2022-12-04T01:59:55.726Z,11.27
2022-12-04T02:02:32.021Z,10.43
2022-12-04T02:05:01.955Z,10.20
2022-12-04T02:07:29.667Z,10.73
2022-12-04T02:10:03.570Z,11.73
2022-12-04T02:12:47.208Z,11.87
2022-12-04T02:16:09.780Z,9.73
2022-12-04T02:18:39.790Z,10.90
2022-12-04T02:21:17.334Z,10.30
2022-12-04T02:23:55.696Z,9.87
2022-12-04T02:26:33.317Z,9.33
2022-12-04T02:29:06.480Z,9.90
2022-12-04T02:31:44.114Z,9.77
2022-12-04T02:34:20.380Z,9.13
2022-12-04T02:37:08.428Z,10.03
2022-12-04T02:39:44.366Z,8.10
2022-12-04T02:42:17.038Z,8.30
2022-12-04T02:44:52.286Z,9.20
2022-12-04T02:47:23.094Z,7.43
2022-12-04T02:49:58.607Z,9.10
2022-12-04T02:52:41.682Z,8.93
2022-12-04T02:55:16.359Z,8.67
2022-12-04T02:57:48.601Z,8.23
2022-12-04T03:00:17.012Z,7.63
2022-12-04T03:02:58.682Z,8.20
2022-12-04T03:05:34.129Z,7.53
2022-12-04T03:08:07.939Z,7.57
2022-12-04T03:10:40.359Z,6.50
2022-12-04T03:13:24.146Z,7.33
2022-12-04T03:16:01.657Z,7.57
2022-12-04T03:18:43.136Z,7.90
2022-12-04T03:21:14.779Z,7.67
2022-12-04T03:24:09.328Z,7.87
2022-12-04T03:26:52.297Z,5.93
2022-12-04T03:29:39.692Z,7.70
2022-12-04T03:32:15.662Z,6.67
2022-12-04T03:35:01.030Z,7.77
2022-12-04T03:37:46.775Z,7.13
2022-12-04T03:40:23.699Z,7.77
2022-12-04T03:43:14.617Z,6.40
2022-12-04T03:45:51.435Z,6.67
2022-12-04T03:48:26.207Z,7.20
2022-12-04T03:51:04.601Z,6.67
2022-12-04T03:54:02.419Z,6.80
2022-12-04T03:56:34.290Z,6.40
2022-12-04T03:59:08.444Z,5.87
2022-12-04T04:01:42.347Z,6.50
2022-12-04T04:04:16.030Z,6.07
2022-12-04T04:06:48.914Z,6.57
2022-12-04T04:09:21.782Z,7.00
2022-12-04T04:12:05.075Z,6.20
2022-12-04T04:15:03.200Z,7.13
2022-12-04T04:17:53.299Z,6.47
2022-12-04T04:20:44.566Z,7.23
2022-12-04T04:23:30.480Z,6.30
2022-12-04T04:26:00.528Z,6.17
2022-12-04T04:28:33.646Z,6.77
2022-12-04T04:31:13.091Z,7.30
2022-12-04T04:33:57.598Z,7.27
2022-12-04T04:36:50.631Z,7.73
2022-12-04T04:39:36.478Z,7.33
2022-12-04T04:42:12.602Z,7.67
2022-12-04T04:44:47.363Z,7.67
2022-12-04T04:47:23.588Z,8.23
2022-12-04T04:49:52.681Z,8.03
2022-12-04T04:52:22.546Z,7.23
2022-12-04T04:54:49.774Z,7.77
2022-12-04T04:57:32.045Z,8.27
2022-12-04T04:59:59.334Z,7.23
2022-12-04T05:02:27.441Z,8.47
2022-12-04T05:04:55.750Z,7.73
2022-12-04T05:07:23.005Z,7.43
2022-12-04T05:09:50.266Z,7.93
2022-12-04T05:12:17.508Z,8.20
2022-12-04T05:14:46.375Z,7.63
2022-12-04T05:17:13.775Z,7.70
2022-12-04T05:19:53.744Z,8.30
2022-12-04T05:22:27.308Z,7.80
2022-12-04T05:24:54.978Z,8.27
2022-12-04T05:27:23.238Z,7.30
2022-12-04T05:29:53.671Z,7.70
2022-12-04T05:32:23.215Z,6.57
2022-12-04T05:34:51.478Z,7.43
2022-12-04T05:37:19.917Z,7.57
2022-12-04T05:39:47.461Z,8.17
2022-12-04T05:42:14.958Z,8.40
2022-12-04T05:44:42.262Z,7.40
2022-12-04T05:47:10.447Z,6.70
2022-12-04T05:49:37.714Z,8.87
2022-12-04T05:52:05.973Z,7.60
2022-12-04T05:54:33.225Z,7.70
2022-12-04T05:57:00.416Z,7.50
2022-12-04T05:59:27.760Z,7.37
2022-12-04T06:01:55.127Z,7.57
2022-12-04T06:04:22.772Z,7.93
2022-12-04T06:06:50.013Z,7.97
2022-12-04T06:09:17.243Z,6.80
2022-12-04T06:11:44.482Z,7.00
2022-12-04T06:14:14.781Z,6.47
2022-12-04T06:16:44.571Z,6.77
2022-12-04T06:19:18.422Z,6.77
2022-12-04T06:21:48.696Z,7.80
2022-12-04T06:24:20.371Z,6.50
2022-12-04T06:27:18.684Z,5.87
2022-12-04T06:29:35.113Z,6.23
2022-12-04T06:32:02.588Z,7.00
2022-12-04T06:34:30.006Z,7.30
2022-12-04T06:36:57.386Z,7.60
2022-12-04T06:39:24.661Z,6.70
2022-12-04T06:41:51.867Z,7.97
2022-12-04T06:44:19.132Z,7.37
2022-12-04T06:46:47.340Z,7.43
2022-12-04T06:49:15.183Z,6.50
2022-12-04T06:51:42.393Z,8.67
2022-12-04T06:54:10.761Z,6.97
2022-12-04T06:56:37.988Z,7.33
2022-12-04T06:59:05.631Z,6.90
2022-12-04T07:01:34.792Z,6.70
2022-12-04T07:04:04.154Z,7.00
2022-12-04T07:06:33.793Z,6.47
2022-12-04T07:09:10.396Z,7.33
2022-12-04T07:11:39.254Z,6.87
2022-12-04T07:14:06.624Z,6.87
2022-12-04T07:16:40.069Z,8.43
2022-12-04T07:19:12.876Z,6.67
2022-12-04T07:21:40.490Z,7.27
2022-12-04T07:24:08.110Z,6.80
2022-12-04T07:26:35.444Z,7.10
2022-12-04T07:29:02.766Z,7.97
2022-12-04T07:31:30.615Z,7.70
2022-12-04T07:33:58.553Z,7.57
2022-12-04T07:36:26.718Z,7.13
2022-12-04T07:38:56.127Z,7.63
2022-12-04T07:41:23.882Z,7.60
2022-12-04T07:43:51.082Z,6.93
2022-12-04T07:46:21.262Z,7.43
2022-12-04T07:48:48.638Z,7.47
2022-12-04T07:51:19.063Z,6.87
2022-12-04T07:53:46.628Z,6.70
2022-12-04T07:56:14.333Z,8.30
2022-12-04T07:58:41.892Z,8.47
2022-12-04T08:01:15.818Z,8.00
2022-12-04T08:03:48.036Z,6.47
2022-12-04T08:06:18.310Z,7.43
2022-12-04T08:08:46.736Z,6.87
2022-12-04T08:11:16.779Z,7.40
2022-12-04T08:13:44.963Z,8.37
2022-12-04T08:16:12.995Z,7.30
2022-12-04T08:18:41.390Z,7.40
2022-12-04T08:21:13.951Z,8.10
2022-12-04T08:23:43.592Z,7.50
2022-12-04T08:26:11.856Z,7.30
2022-12-04T08:28:39.588Z,7.23
2022-12-04T08:31:10.303Z,8.27
2022-12-04T08:33:38.341Z,8.90
2022-12-04T08:36:10.380Z,7.10
2022-12-04T08:38:37.764Z,8.47
2022-12-04T08:41:06.995Z,8.37
2022-12-04T08:43:34.389Z,8.70
2022-12-04T08:46:04.848Z,7.07
2022-12-04T08:48:32.940Z,8.10
2022-12-04T08:51:00.978Z,9.03
2022-12-04T08:53:28.187Z,7.27
2022-12-04T08:55:55.456Z,7.73
2022-12-04T08:58:23.136Z,8.07
2022-12-04T09:00:50.479Z,6.80
2022-12-04T09:03:19.868Z,7.93
2022-12-04T09:05:47.679Z,7.37
2022-12-04T09:08:16.313Z,7.97
2022-12-04T09:10:44.575Z,8.10
2022-12-04T09:13:12.061Z,7.53
2022-12-04T09:15:40.903Z,7.80
2022-12-04T09:18:09.234Z,6.83
2022-12-04T09:20:36.941Z,7.87
2022-12-04T09:23:05.681Z,7.47
2022-12-04T09:25:37.018Z,8.33
2022-12-04T09:28:04.814Z,7.70
2022-12-04T09:30:32.152Z,7.03
2022-12-04T09:32:59.349Z,7.37
2022-12-04T09:35:26.582Z,7.33
2022-12-04T09:37:54.021Z,7.87
2022-12-04T09:40:35.231Z,7.43
2022-12-04T09:43:28.826Z,8.63
2022-12-04T09:46:02.216Z,7.07
2022-12-04T09:48:35.961Z,8.03
2022-12-04T09:51:05.684Z,8.30
2022-12-04T09:53:46.899Z,7.90
2022-12-04T09:56:19.755Z,8.80
2022-12-04T09:58:57.418Z,8.17
2022-12-04T10:01:30.019Z,8.40
2022-12-04T10:04:02.577Z,7.53
2022-12-04T10:06:49.908Z,8.87
2022-12-04T10:09:27.087Z,7.93
2022-12-04T10:12:13.177Z,8.53
2022-12-04T10:14:58.795Z,9.20
2022-12-04T10:17:46.243Z,8.47
2022-12-04T10:20:37.779Z,8.50
2022-12-04T10:23:15.532Z,8.60
2022-12-04T10:25:43.472Z,9.00
2022-12-04T10:28:13.484Z,8.27
2022-12-04T10:30:43.104Z,8.27
2022-12-04T10:33:41.917Z,8.27
2022-12-04T10:36:17.068Z,8.33
2022-12-04T10:39:06.242Z,8.30
2022-12-04T10:41:57.312Z,8.47
2022-12-04T10:44:24.859Z,8.60
2022-12-04T10:46:57.031Z,8.00
2022-12-04T10:49:29.755Z,8.40
2022-12-04T10:51:57.192Z,9.13
2022-12-04T10:54:51.941Z,8.70
2022-12-04T10:57:19.219Z,8.40
2022-12-04T10:59:56.101Z,7.97
2022-12-04T11:02:29.800Z,8.57
2022-12-04T11:04:59.834Z,8.03
2022-12-04T11:07:45.054Z,8.27
2022-12-04T11:10:35.945Z,9.07
2022-12-04T11:13:17.650Z,8.03
2022-12-04T11:15:55.536Z,7.67
2022-12-04T11:18:24.517Z,8.13
2022-12-04T11:20:56.047Z,7.80
2022-12-04T11:23:24.398Z,7.40
2022-12-04T11:25:53.827Z,8.07
2022-12-04T11:28:44.080Z,7.73
2022-12-04T11:31:18.242Z,8.23
2022-12-04T11:33:55.672Z,8.20
2022-12-04T11:36:35.105Z,7.53
2022-12-04T11:39:11.777Z,7.93
2022-12-04T11:41:39.432Z,9.67
2022-12-04T11:44:20.233Z,8.23
2022-12-04T11:46:53.595Z,8.43
2022-12-04T11:49:23.413Z,8.03
2022-12-04T11:52:10.921Z,7.80
2022-12-04T11:54:44.493Z,8.10
2022-12-04T11:57:17.551Z,8.60
2022-12-04T12:00:00.182Z,8.33
2022-12-04T12:02:58.451Z,9.27
2022-12-04T12:05:53.776Z,8.00
2022-12-04T12:08:25.427Z,7.60
2022-12-04T12:11:10.532Z,9.23
2022-12-04T12:13:59.676Z,8.23
2022-12-04T12:16:51.335Z,8.70
2022-12-04T12:19:37.523Z,9.63
2022-12-04T12:22:21.774Z,8.63
2022-12-04T12:25:21.397Z,8.50
2022-12-04T12:28:10.505Z,8.77
2022-12-04T12:30:45.176Z,7.13
2022-12-04T12:33:19.300Z,8.27
2022-12-04T12:35:52.281Z,7.43
2022-12-04T12:38:27.903Z,8.90
2022-12-04T12:41:07.268Z,7.83
2022-12-04T12:43:38.122Z,8.67
2022-12-04T12:46:37.825Z,8.30
2022-12-04T12:49:20.627Z,9.17
2022-12-04T12:51:53.346Z,9.27
2022-12-04T12:54:41.518Z,9.77
2022-12-04T12:57:14.895Z,9.30
2022-12-04T12:59:51.527Z,8.23
2022-12-04T13:02:45.117Z,8.70
2022-12-04T13:05:17.428Z,7.73
2022-12-04T13:07:57.230Z,8.33
2022-12-04T13:10:34.715Z,7.77
2022-12-04T13:13:29.777Z,9.83
2022-12-04T13:16:09.857Z,7.83
2022-12-04T13:18:48.406Z,8.37
2022-12-04T13:21:33.782Z,8.37
2022-12-04T13:24:29.274Z,9.47
2022-12-04T13:27:36.209Z,9.50
2022-12-04T13:30:22.241Z,8.87
2022-12-04T13:33:03.978Z,8.60
2022-12-04T13:35:49.719Z,9.33
2022-12-04T13:38:34.799Z,8.57
2022-12-04T13:41:06.044Z,8.63
2022-12-04T13:43:42.775Z,9.43
2022-12-04T13:46:34.583Z,9.57
2022-12-04T13:49:32.773Z,8.83
2022-12-04T13:52:03.638Z,8.40
2022-12-04T13:54:37.899Z,7.33
2022-12-04T13:57:17.589Z,9.90
2022-12-04T13:59:45.567Z,10.20
2022-12-04T14:02:35.359Z,9.77
2022-12-04T14:05:07.061Z,8.57
2022-12-04T14:07:37.401Z,8.50
2022-12-04T14:10:06.895Z,9.37
2022-12-04T14:12:37.570Z,7.83
2022-12-04T14:15:17.987Z,9.53
2022-12-04T14:17:56.687Z,9.60
2022-12-04T14:20:27.940Z,8.70
2022-12-04T14:22:55.360Z,9.07
2022-12-04T14:25:34.255Z,8.47
2022-12-04T14:28:34.935Z,7.73
2022-12-04T14:31:13.278Z,8.80
2022-12-04T14:33:52.514Z,8.80
2022-12-04T14:36:28.957Z,8.20
2022-12-04T14:39:12.673Z,8.03
2022-12-04T14:41:40.620Z,8.17
2022-12-04T14:44:22.229Z,8.10
2022-12-04T14:46:52.752Z,8.20
2022-12-04T14:50:02.685Z,7.93
2022-12-04T14:52:43.551Z,8.33
2022-12-04T14:55:32.278Z,8.40
2022-12-04T14:58:25.486Z,8.57
2022-12-04T15:00:54.466Z,8.67
2022-12-04T15:03:22.438Z,9.00
2022-12-04T15:05:51.474Z,8.83
2022-12-04T15:08:20.995Z,7.83
2022-12-04T15:11:10.647Z,9.33
2022-12-04T15:13:39.028Z,9.50
2022-12-04T15:16:18.162Z,7.77
2022-12-04T15:18:56.391Z,9.07
2022-12-04T15:21:30.236Z,8.73
2022-12-04T15:23:58.465Z,8.23
2022-12-04T15:26:26.820Z,8.33
2022-12-04T15:29:00.411Z,8.13
2022-12-04T15:31:43.354Z,8.17
2022-12-04T15:34:17.021Z,7.73
2022-12-04T15:36:51.130Z,9.03
2022-12-04T15:39:29.216Z,9.07
2022-12-04T15:42:24.461Z,9.07
2022-12-04T15:44:53.377Z,8.67
2022-12-04T15:47:25.682Z,9.10
2022-12-04T15:49:53.110Z,9.47
2022-12-04T15:52:23.218Z,9.00
2022-12-04T15:54:56.706Z,9.07
2022-12-04T15:57:33.739Z,9.10
2022-12-04T16:00:05.327Z,8.93
2022-12-04T16:02:40.454Z,8.87
2022-12-04T16:05:27.145Z,9.83
2022-12-04T16:07:57.075Z,9.80
2022-12-04T16:10:26.075Z,8.33
2022-12-04T16:12:55.075Z,8.80
2022-12-04T16:15:23.206Z,9.37
2022-12-04T16:17:50.885Z,8.60
2022-12-04T16:20:19.246Z,9.57
2022-12-04T16:22:51.172Z,10.30
2022-12-04T16:25:18.411Z,9.63
2022-12-04T16:27:45.662Z,7.57
2022-12-04T16:30:14.050Z,9.30
2022-12-04T16:32:41.626Z,8.87
2022-12-04T16:35:15.836Z,9.83
2022-12-04T16:37:43.223Z,8.37
2022-12-04T16:40:14.574Z,9.00
2022-12-04T16:42:43.259Z,9.10
2022-12-04T16:45:31.173Z,8.77
2022-12-04T16:47:58.610Z,9.17
2022-12-04T16:50:27.702Z,9.03
2022-12-04T16:52:55.318Z,9.73
2022-12-04T16:55:33.601Z,9.43
2022-12-04T16:58:02.742Z,9.60
2022-12-04T17:00:30.187Z,9.37
2022-12-04T17:02:58.273Z,9.50
2022-12-04T17:05:28.276Z,10.43
2022-12-04T17:07:55.866Z,9.83
2022-12-04T17:10:24.522Z,10.37
2022-12-04T17:12:53.789Z,11.13
2022-12-04T17:15:22.172Z,11.13
2022-12-04T17:17:49.998Z,10.60
2022-12-04T17:20:19.453Z,11.53
2022-12-04T17:22:47.246Z,10.73
2022-12-04T17:25:15.755Z,10.40
2022-12-04T17:27:43.096Z,10.77
2022-12-04T17:30:11.640Z,11.57
2022-12-04T17:32:38.815Z,12.00
2022-12-04T17:35:08.181Z,11.10
2022-12-04T17:37:36.325Z,10.70
2022-12-04T17:40:05.489Z,10.53
2022-12-04T17:42:33.021Z,12.87
2022-12-04T17:45:01.566Z,11.30
2022-12-04T17:47:28.845Z,11.63
2022-12-04T17:49:56.326Z,11.00
2022-12-04T17:52:24.194Z,10.23
2022-12-04T17:54:52.412Z,10.93
2022-12-04T17:57:21.120Z,11.63
2022-12-04T17:59:49.268Z,11.27
2022-12-04T18:02:17.479Z,11.33
2022-12-04T18:04:47.922Z,11.60
2022-12-04T18:07:15.565Z,11.30
2022-12-04T18:10:00.194Z,12.00
2022-12-04T18:12:27.933Z,11.00
2022-12-04T18:14:55.311Z,11.67
2022-12-04T18:17:22.522Z,11.47
2022-12-04T18:19:50.055Z,11.90
2022-12-04T18:22:17.328Z,11.00
2022-12-04T18:24:44.694Z,12.10
2022-12-04T18:27:12.524Z,11.83
2022-12-04T18:30:01.560Z,12.67
2022-12-04T18:32:28.862Z,11.60
2022-12-04T18:34:56.177Z,11.97
2022-12-04T18:37:23.801Z,12.17
2022-12-04T18:39:52.714Z,13.40
2022-12-04T18:42:30.303Z,13.90
2022-12-04T18:44:57.617Z,12.50
2022-12-04T18:47:26.920Z,12.33
2022-12-04T18:49:54.678Z,12.17
2022-12-04T18:52:22.285Z,12.13
2022-12-04T18:54:50.378Z,12.10
2022-12-04T18:57:17.660Z,11.87
2022-12-04T18:59:44.894Z,12.57
2022-12-04T19:02:12.339Z,11.80
2022-12-04T19:04:41.941Z,12.17
2022-12-04T19:07:09.426Z,13.13
2022-12-04T19:10:09.565Z,11.73
2022-12-04T19:12:24.252Z,11.07
2022-12-04T19:14:51.579Z,11.63
2022-12-04T19:17:24.233Z,12.00
2022-12-04T19:19:54.675Z,11.77
2022-12-04T19:22:25.447Z,12.80
2022-12-04T19:24:52.891Z,11.10
2022-12-04T19:27:20.532Z,11.23
2022-12-04T19:29:48.055Z,12.83
2022-12-04T19:32:15.706Z,12.27
2022-12-04T19:34:43.757Z,11.87
2022-12-04T19:37:14.160Z,10.57
2022-12-04T19:39:44.511Z,11.30
2022-12-04T19:42:11.840Z,11.77
2022-12-04T19:44:49.106Z,11.70
2022-12-04T19:47:19.851Z,11.13
2022-12-04T19:49:47.416Z,11.00
2022-12-04T19:52:15.500Z,11.53
2022-12-04T19:54:42.945Z,10.77
2022-12-04T19:57:10.370Z,10.97
2022-12-04T19:59:41.725Z,10.60
2022-12-04T20:02:12.286Z,12.27
2022-12-04T20:04:39.858Z,11.97
2022-12-04T20:07:09.293Z,11.37
2022-12-04T20:09:40.851Z,10.73
2022-12-04T20:12:08.259Z,11.53
2022-12-04T20:14:35.704Z,11.80
2022-12-04T20:17:03.998Z,12.03
2022-12-04T20:19:31.396Z,10.77
2022-12-04T20:21:59.644Z,11.33
2022-12-04T20:24:27.057Z,12.13
2022-12-04T20:29:43.387Z,10.70
2022-12-04T20:32:10.678Z,10.93
2022-12-04T20:34:43.295Z,11.13
2022-12-04T20:37:11.623Z,10.60
2022-12-04T20:39:39.254Z,11.23
2022-12-04T20:42:06.567Z,10.40
2022-12-04T20:44:33.863Z,10.40
2022-12-04T20:47:01.073Z,10.83
2022-12-04T20:49:28.282Z,11.10
2022-12-04T20:51:55.596Z,12.27
2022-12-04T20:54:23.259Z,10.50
2022-12-04T20:56:59.052Z,11.07
2022-12-04T20:59:27.271Z,10.13
2022-12-04T21:01:55.705Z,10.73
2022-12-04T21:04:23.932Z,11.43
2022-12-04T21:06:51.737Z,11.50
2022-12-04T21:09:26.828Z,12.17
2022-12-04T21:11:55.573Z,11.63
2022-12-04T21:14:46.477Z,10.63
2022-12-04T21:17:19.031Z,11.27
2022-12-04T21:19:48.600Z,12.20
2022-12-04T21:22:18.420Z,11.87
2022-12-04T21:24:53.582Z,10.83
2022-12-04T21:27:23.764Z,10.37
2022-12-04T21:29:51.501Z,10.03
2022-12-04T21:32:19.772Z,12.20
2022-12-04T21:34:47.392Z,11.77
2022-12-04T21:37:15.223Z,10.90
2022-12-04T21:39:43.358Z,11.63
2022-12-04T21:42:33.831Z,12.17
2022-12-04T21:45:16.363Z,11.67
2022-12-04T21:47:43.819Z,11.77
2022-12-04T21:50:11.193Z,10.50
2022-12-04T21:52:42.034Z,10.73
2022-12-04T21:55:12.591Z,11.07
2022-12-04T21:57:40.850Z,10.87
2022-12-04T22:00:12.350Z,11.77
2022-12-04T22:02:40.069Z,9.97
2022-12-04T22:05:14.076Z,11.07
2022-12-04T22:07:52.342Z,10.63
2022-12-04T22:10:20.399Z,10.73
2022-12-04T22:12:51.033Z,11.87
2022-12-04T22:15:18.979Z,11.67
2022-12-04T22:17:46.311Z,11.17
2022-12-04T22:20:15.592Z,11.57
2022-12-04T22:22:43.115Z,11.67
2022-12-04T22:25:10.576Z,10.57
2022-12-04T22:27:38.000Z,11.60
2022-12-04T22:30:06.590Z,11.70
2022-12-04T22:32:33.972Z,11.77
2022-12-04T22:35:01.430Z,11.67
2022-12-04T22:37:28.892Z,11.17
2022-12-04T22:39:56.721Z,10.60
2022-12-04T22:42:24.259Z,11.27
2022-12-04T22:44:51.885Z,11.80
2022-12-04T22:47:19.459Z,11.57
2022-12-04T22:49:47.309Z,11.50
2022-12-04T22:52:19.889Z,12.40
2022-12-04T22:54:47.617Z,13.20
2022-12-04T22:57:16.435Z,11.43
2022-12-04T22:59:43.876Z,11.70
2022-12-04T23:02:13.658Z,12.20
2022-12-04T23:04:42.753Z,12.10
2022-12-04T23:07:10.529Z,11.43
2022-12-04T23:09:41.168Z,11.97
2022-12-04T23:12:08.635Z,11.83
2022-12-04T23:14:36.937Z,11.83
2022-12-04T23:17:04.256Z,12.37
2022-12-04T23:19:31.947Z,12.20
2022-12-04T23:21:59.497Z,11.30
2022-12-04T23:24:27.065Z,12.83
2022-12-04T23:26:54.608Z,13.17
2022-12-04T23:30:04.581Z,12.83
2022-12-04T23:32:09.285Z,13.13
2022-12-04T23:34:38.490Z,13.60
2022-12-04T23:37:05.968Z,13.80
2022-12-04T23:39:33.594Z,14.30
2022-12-04T23:42:01.227Z,13.50
2022-12-04T23:44:28.817Z,12.50
2022-12-04T23:46:56.322Z,12.67
2022-12-04T23:49:24.175Z,13.97
2022-12-04T23:51:51.517Z,13.90
2022-12-04T23:54:18.996Z,13.50
2022-12-04T23:56:46.467Z,13.80
2022-12-04T23:59:13.926Z,15.43
